Latitude: N 50° 09' 49" Longitude: W 05° 11' 53" Elevation: 168m ASL

There are 26 visitors online

Adverts
Latest METAR Data

Below are the latest METARs ("Meteorological Services to Airmen Reports"), for RNAS Culdrose and Newquay Airport.

EGDR - RNAS Culdrose
Distance from station: SW 6mi, 9km
Updated: Sun, 20-Jan-2019 6:50pm GMT
Partly Cloudy
Partly Cloudy
 Wind from N
Wind: N 10 mph , 17 km/h
Temperature: 43°F , 6°C
Wind Chill: 37°F , 3°C
Dew Point: 39°F , 4°C
Humidity: 87%
Barometer: 30.21 inHg , 1023 hPa
Clouds: Partly Cloudy
Visibility: 6 miles , 10 km
Cloud details: Partly Cloudy 4500 ft
2019/01/20 18:50 EGDR 201850Z AUTO 36009KT 9999 // SCT045/// 06/04 Q1023
EGHQ - Newquay Airport
Distance from station: NE 21mi, 34km
Updated: Sun, 20-Jan-2019 7:50pm GMT
Partly Cloudy
Partly Cloudy
 Wind from N
Wind: N 6 mph , 9 km/h
Temperature: 43°F , 6°C
Wind Chill: 39°F , 4°C
Dew Point: 37°F , 3°C
Humidity: 81%
Barometer: 30.21 inHg , 1023 hPa
Clouds: Partly Cloudy
Visibility: 6 miles , 10 km
Cloud details: Partly Cloudy 4000 ft
2019/01/20 19:50 EGHQ 201950Z 36005KT 9999 SCT040 06/03 Q1023
 
EGTE - Exeter Airport
Distance from station: ENE 88mi, 141km
Updated: Sun, 20-Jan-2019 7:50pm GMT
Mostly Cloudy
Mostly Cloudy
 Wind from NNW
Wind: NNW 5 mph , 7 km/h
Temperature: 43°F , 6°C
Wind Chill: 40°F , 4°C
Dew Point: 39°F , 4°C
Humidity: 87%
Barometer: 30.21 inHg , 1023 hPa
Clouds: Mostly Cloudy
Visibility: 6 miles , 10 km
Cloud details: Few Clouds 1500 ft
Mostly Cloudy 4000 ft
2019/01/20 19:50 EGTE 201950Z 34004KT 9999 FEW015 BKN040 06/04 Q1023
EGHE - St Marys, IOS
Distance from station: W 51mi, 82km
Updated: Sat, 19-Jan-2019 11:50am GMT
NOT Current
Nearby showers, Partly cloudy
Nearby showers, Partly cloudy
 Wind from WNW
Wind: WNW 12 mph , 19 km/h
Temperature: 48°F , 9°C
Wind Chill: 43°F , 6°C
Dew Point: 45°F , 7°C
Humidity: 87%
Barometer: 29.71 inHg , 1006 hPa
Summary: Nearby Showers
Clouds: Partly Cloudy
Visibility: 6 miles , 10 km
Cloud details: Partly Cloudy 1500 ft
2019/01/19 11:50 EGHE 191150Z 29010KT 9999 VCSH SCT015CB 09/07 Q1006

Metar display script from Saratoga-Weather.org

UK - WEATHER STATION TOPSITES - UK World Weather Websites

This is a private weather station, never base important decisions or events on data from this weather station. Although every effort has been made to make the data as accurate as possible it does not meet MetOffice standards. It is proved as a guide of local weather conditions. We accept no liability for any loss which may arise from use of the data.

Copyright © Carnkie Weather 2009 - 2018.